createdAt,value
2022-09-26T00:00:03.238Z,41.2700
2022-09-26T00:00:14.384Z,41.2390
2022-09-26T00:00:25.523Z,41.2390
2022-09-26T00:00:36.585Z,41.2450
2022-09-26T00:00:47.715Z,41.2510
2022-09-26T00:00:58.782Z,41.2570
2022-09-26T00:01:10.125Z,41.2760
2022-09-26T00:01:21.318Z,41.2760
2022-09-26T00:01:32.519Z,41.2760
2022-09-26T00:01:43.810Z,41.2810
2022-09-26T00:01:55.033Z,41.2700
2022-09-26T00:02:06.213Z,41.2370
2022-09-26T00:02:17.370Z,41.2570
2022-09-26T00:02:28.578Z,41.2870
2022-09-26T00:02:39.798Z,41.2810
2022-09-26T00:02:51.029Z,41.2510
2022-09-26T00:03:02.112Z,41.2270
2022-09-26T00:03:13.252Z,41.2160
2022-09-26T00:03:24.295Z,41.2160
2022-09-26T00:03:35.384Z,41.2220
2022-09-26T00:03:46.520Z,41.2160
2022-09-26T00:03:57.645Z,41.2270
2022-09-26T00:04:08.713Z,41.2270
2022-09-26T00:04:22.924Z,41.2510
2022-09-26T00:04:34.494Z,41.4000
2022-09-26T00:04:45.650Z,41.3010
2022-09-26T00:04:56.712Z,41.2310
2022-09-26T00:05:07.754Z,41.2100
2022-09-26T00:05:18.844Z,41.2040
2022-09-26T00:05:29.927Z,41.1790
2022-09-26T00:05:40.988Z,41.1870
2022-09-26T00:05:52.056Z,41.1730
2022-09-26T00:06:03.113Z,41.1560
2022-09-26T00:06:14.174Z,41.1670
2022-09-26T00:06:25.236Z,41.1500
2022-09-26T00:06:36.301Z,41.1670
2022-09-26T00:06:47.425Z,41.2040
2022-09-26T00:06:58.477Z,41.1850
2022-09-26T00:07:09.542Z,41.1500
2022-09-26T00:07:20.626Z,41.1610
2022-09-26T00:07:31.676Z,41.1560
2022-09-26T00:07:42.703Z,41.1610
2022-09-26T00:07:53.823Z,41.1320
2022-09-26T00:08:04.906Z,41.1560
2022-09-26T00:08:15.973Z,41.1670
2022-09-26T00:08:27.053Z,41.1730
2022-09-26T00:08:38.333Z,41.1500
2022-09-26T00:08:49.373Z,41.1440
2022-09-26T00:09:00.452Z,41.1270
2022-09-26T00:09:11.520Z,41.1330
2022-09-26T00:09:22.591Z,41.1380
2022-09-26T00:09:33.650Z,41.1210
2022-09-26T00:09:44.725Z,41.1150
2022-09-26T00:09:55.800Z,41.1210
2022-09-26T00:10:06.861Z,41.1270
2022-09-26T00:10:17.930Z,41.1380
2022-09-26T00:10:28.980Z,41.1380
2022-09-26T00:10:40.109Z,41.1380
2022-09-26T00:10:51.156Z,41.1730
2022-09-26T00:11:02.182Z,41.1980
2022-09-26T00:11:13.267Z,41.2100
2022-09-26T00:11:24.325Z,41.1980
2022-09-26T00:11:35.382Z,41.1710
2022-09-26T00:11:46.430Z,41.1420
2022-09-26T00:11:57.468Z,41.1290
2022-09-26T00:12:08.556Z,41.1290
2022-09-26T00:12:19.602Z,41.1480
2022-09-26T00:12:30.668Z,41.1290
2022-09-26T00:12:41.727Z,41.1350
2022-09-26T00:12:52.804Z,41.1600
2022-09-26T00:13:03.946Z,41.2040
2022-09-26T00:13:14.987Z,41.1920
2022-09-26T00:13:26.046Z,41.1620
2022-09-26T00:13:37.099Z,41.1440
2022-09-26T00:13:48.188Z,41.1330
2022-09-26T00:13:59.254Z,41.1090
2022-09-26T00:14:10.443Z,41.1090
2022-09-26T00:14:21.494Z,41.1260
2022-09-26T00:14:32.573Z,41.0960
2022-09-26T00:14:43.732Z,41.1260
2022-09-26T00:14:54.843Z,41.1090
2022-09-26T00:15:05.921Z,41.0960
2022-09-26T00:15:16.995Z,41.0960
2022-09-26T00:15:28.125Z,41.1210
2022-09-26T00:15:40.218Z,41.1260
2022-09-26T00:15:51.303Z,41.2100
2022-09-26T00:16:02.375Z,41.2040
2022-09-26T00:16:13.569Z,41.1920
2022-09-26T00:16:24.639Z,41.1790
2022-09-26T00:16:35.823Z,41.1670
2022-09-26T00:16:47.188Z,41.1620
2022-09-26T00:16:58.380Z,41.1600
2022-09-26T00:17:09.629Z,41.1230
2022-09-26T00:17:20.910Z,41.1290
2022-09-26T00:17:31.979Z,41.1120
2022-09-26T00:17:43.120Z,41.1440
2022-09-26T00:17:54.173Z,41.1570
2022-09-26T00:18:05.276Z,41.1320
2022-09-26T00:18:16.334Z,41.1440
2022-09-26T00:18:27.424Z,41.1140
2022-09-26T00:18:38.480Z,41.1170
2022-09-26T00:18:49.521Z,41.1510
2022-09-26T00:19:00.625Z,41.1600
2022-09-26T00:19:11.729Z,41.1540
2022-09-26T00:19:22.782Z,41.1540
2022-09-26T00:19:33.946Z,41.1120
2022-09-26T00:19:45.072Z,41.1000
2022-09-26T00:19:56.124Z,41.1200
2022-09-26T00:20:07.201Z,41.1140
2022-09-26T00:20:18.364Z,41.1320
2022-09-26T00:20:29.489Z,41.1320
2022-09-26T00:20:40.540Z,41.1140
2022-09-26T00:20:51.624Z,41.1380
2022-09-26T00:21:02.701Z,41.1630
2022-09-26T00:21:13.758Z,41.1750
2022-09-26T00:21:24.826Z,41.1570
2022-09-26T00:21:35.915Z,41.1630
2022-09-26T00:21:47.233Z,41.1320
2022-09-26T00:21:58.280Z,41.1120
2022-09-26T00:22:09.323Z,41.0830
2022-09-26T00:22:20.372Z,41.0840
2022-09-26T00:22:31.432Z,41.0840
2022-09-26T00:22:42.509Z,41.0900
2022-09-26T00:22:53.552Z,41.0610
2022-09-26T00:23:04.612Z,41.0670
2022-09-26T00:23:15.703Z,41.1090
2022-09-26T00:23:26.771Z,41.0730
2022-09-26T00:23:37.904Z,41.0670
2022-09-26T00:23:49.020Z,41.0670
2022-09-26T00:24:00.100Z,41.0840
2022-09-26T00:24:11.159Z,41.0730
2022-09-26T00:24:22.193Z,41.0770
2022-09-26T00:24:33.262Z,41.1000
2022-09-26T00:24:44.320Z,41.1200
2022-09-26T00:24:55.354Z,41.1380
2022-09-26T00:25:06.423Z,41.1440
2022-09-26T00:25:17.500Z,41.1380
2022-09-26T00:25:28.565Z,41.1030
2022-09-26T00:25:39.721Z,41.0910
2022-09-26T00:25:50.858Z,41.0910
2022-09-26T00:26:01.920Z,41.0910
2022-09-26T00:26:12.968Z,41.0910
2022-09-26T00:26:24.020Z,41.1070
2022-09-26T00:26:35.096Z,41.1360
2022-09-26T00:26:46.164Z,41.1090
2022-09-26T00:26:57.239Z,41.1210
2022-09-26T00:27:08.320Z,41.1570
2022-09-26T00:27:19.399Z,41.1590
2022-09-26T00:27:30.464Z,41.1530
2022-09-26T00:27:41.660Z,41.1360
2022-09-26T00:27:52.718Z,41.1360
2022-09-26T00:28:03.807Z,41.1180
2022-09-26T00:28:14.854Z,41.1130
2022-09-26T00:28:25.954Z,41.0820
2022-09-26T00:28:37.017Z,41.0930
2022-09-26T00:28:48.083Z,41.1070
2022-09-26T00:28:59.145Z,41.0930
2022-09-26T00:29:10.284Z,41.0700
2022-09-26T00:29:21.342Z,41.0700
2022-09-26T00:29:32.433Z,41.0740
2022-09-26T00:29:43.573Z,41.0970
2022-09-26T00:29:54.612Z,41.1260
2022-09-26T00:30:05.686Z,41.1030
2022-09-26T00:30:16.779Z,41.0990
2022-09-26T00:30:27.936Z,41.1070
2022-09-26T00:30:39.103Z,41.1070
2022-09-26T00:30:50.253Z,41.0930
2022-09-26T00:31:01.413Z,41.0760
2022-09-26T00:31:12.629Z,41.0820
2022-09-26T00:31:23.740Z,41.0820
2022-09-26T00:31:34.833Z,41.0740
2022-09-26T00:31:45.953Z,41.0490
2022-09-26T00:31:57.019Z,41.0680
2022-09-26T00:32:08.061Z,41.0280
2022-09-26T00:32:19.169Z,41.0280
2022-09-26T00:32:30.196Z,41.0340
2022-09-26T00:32:41.265Z,41.0370
2022-09-26T00:32:52.336Z,41.0610
2022-09-26T00:33:03.399Z,41.0470
2022-09-26T00:33:14.529Z,41.0470
2022-09-26T00:33:25.593Z,41.0530
2022-09-26T00:33:36.767Z,41.0700
2022-09-26T00:33:47.893Z,41.0610
2022-09-26T00:33:58.960Z,41.0680
2022-09-26T00:34:10.023Z,41.0650
2022-09-26T00:34:21.051Z,41.0280
2022-09-26T00:34:32.154Z,40.9930
2022-09-26T00:34:43.233Z,41.0050
2022-09-26T00:34:54.316Z,41.0460
2022-09-26T00:35:05.391Z,41.0460
2022-09-26T00:35:16.520Z,41.0520
2022-09-26T00:35:27.578Z,41.0230
2022-09-26T00:35:38.639Z,41.0050
2022-09-26T00:35:49.689Z,40.9840
2022-09-26T00:36:00.753Z,40.9840
2022-09-26T00:36:11.817Z,40.9840
2022-09-26T00:36:29.836Z,41.0110
2022-09-26T00:36:39.817Z,41.2150
2022-09-26T00:36:50.948Z,41.1510
2022-09-26T00:37:02.019Z,41.0620
2022-09-26T00:37:13.090Z,41.0320
2022-09-26T00:37:24.139Z,41.0160
2022-09-26T00:37:35.198Z,41.0100
2022-09-26T00:37:46.278Z,41.0160
2022-09-26T00:37:57.349Z,41.0550
2022-09-26T00:38:08.402Z,41.0800
2022-09-26T00:38:19.531Z,41.0490
2022-09-26T00:38:30.579Z,41.0680
2022-09-26T00:38:41.653Z,41.0940
2022-09-26T00:38:52.793Z,41.0770
2022-09-26T00:39:03.849Z,41.0710
2022-09-26T00:39:15.111Z,41.0380
2022-09-26T00:39:26.409Z,40.9890
2022-09-26T00:39:37.506Z,40.9720
2022-09-26T00:39:48.559Z,40.9600
2022-09-26T00:39:59.629Z,40.9660
2022-09-26T00:40:10.838Z,40.9720
2022-09-26T00:40:21.996Z,40.9840
2022-09-26T00:40:33.123Z,40.9780
2022-09-26T00:40:44.390Z,40.9950
2022-09-26T00:40:55.569Z,41.0440
2022-09-26T00:41:06.639Z,41.0110
2022-09-26T00:41:17.717Z,40.9930
2022-09-26T00:41:28.778Z,40.9760
2022-09-26T00:41:40.161Z,40.9760
2022-09-26T00:41:51.220Z,40.9820
2022-09-26T00:42:02.255Z,40.9880
2022-09-26T00:42:13.329Z,41.0230
2022-09-26T00:42:24.537Z,41.0550
2022-09-26T00:42:35.574Z,41.0740
2022-09-26T00:42:46.638Z,41.0700
2022-09-26T00:42:57.718Z,41.0930
2022-09-26T00:43:08.793Z,41.1130
2022-09-26T00:43:19.858Z,41.0880
2022-09-26T00:43:30.914Z,41.0820
2022-09-26T00:43:42.062Z,41.0740
2022-09-26T00:43:53.139Z,41.0620
2022-09-26T00:44:04.224Z,41.0430
2022-09-26T00:44:15.369Z,41.0260
2022-09-26T00:44:26.460Z,41.0410
2022-09-26T00:44:37.514Z,41.0760
2022-09-26T00:44:48.595Z,41.0650
2022-09-26T00:44:59.659Z,41.0650
2022-09-26T00:45:10.819Z,41.0820
2022-09-26T00:45:21.870Z,41.0860
2022-09-26T00:45:32.940Z,41.0550
2022-09-26T00:45:44.149Z,41.0320
2022-09-26T00:45:55.221Z,41.0490
2022-09-26T00:46:06.413Z,41.0550
2022-09-26T00:46:17.709Z,41.0620
2022-09-26T00:46:28.804Z,41.0620
2022-09-26T00:46:39.910Z,41.0650
2022-09-26T00:46:50.957Z,41.0740
2022-09-26T00:47:02.018Z,41.1090
2022-09-26T00:47:13.078Z,41.1460
2022-09-26T00:47:24.162Z,41.1570
2022-09-26T00:47:35.198Z,41.1380
2022-09-26T00:47:46.239Z,41.1380
2022-09-26T00:47:57.304Z,41.0920
2022-09-26T00:48:08.368Z,41.0760
2022-09-26T00:48:19.500Z,41.0760
2022-09-26T00:48:30.568Z,41.0820
2022-09-26T00:48:41.619Z,41.0880
2022-09-26T00:48:52.712Z,41.1130
2022-09-26T00:49:03.778Z,41.1010
2022-09-26T00:49:15.046Z,41.1010
2022-09-26T00:49:26.287Z,41.1010
2022-09-26T00:49:37.356Z,41.1010
2022-09-26T00:49:48.489Z,41.1070
2022-09-26T00:49:59.558Z,41.1070
2022-09-26T00:50:10.624Z,41.1130
2022-09-26T00:50:21.746Z,41.0940
2022-09-26T00:50:32.805Z,41.0710
2022-09-26T00:50:43.916Z,41.0740
2022-09-26T00:50:55.093Z,41.0680
2022-09-26T00:51:06.158Z,41.0410
2022-09-26T00:51:17.337Z,41.0650
2022-09-26T00:51:28.378Z,41.0820
2022-09-26T00:51:39.434Z,41.1190
2022-09-26T00:51:50.610Z,41.1300
2022-09-26T00:52:01.656Z,41.1540
2022-09-26T00:52:12.709Z,41.1300
2022-09-26T00:52:23.891Z,41.1480
2022-09-26T00:52:34.954Z,41.1590
2022-09-26T00:52:46.036Z,41.1590
2022-09-26T00:52:57.128Z,41.1480
2022-09-26T00:53:08.201Z,41.1300
2022-09-26T00:53:19.311Z,41.1270
2022-09-26T00:53:30.371Z,41.1330
2022-09-26T00:53:41.435Z,41.1210
2022-09-26T00:53:52.582Z,41.1190
2022-09-26T00:54:03.660Z,41.1270
2022-09-26T00:54:14.731Z,41.1210
2022-09-26T00:54:26.000Z,41.1270
2022-09-26T00:54:37.051Z,41.1520
2022-09-26T00:54:48.110Z,41.1270
2022-09-26T00:54:59.170Z,41.1330
2022-09-26T00:55:10.230Z,41.1210
2022-09-26T00:55:21.359Z,41.1270
2022-09-26T00:55:32.399Z,41.1540
2022-09-26T00:55:43.486Z,41.1360
2022-09-26T00:55:54.623Z,41.1960
2022-09-26T00:56:05.664Z,41.1860
2022-09-26T00:56:16.727Z,41.1510
2022-09-26T00:56:27.793Z,41.0970
2022-09-26T00:56:38.844Z,41.0700
2022-09-26T00:56:49.911Z,41.0530
2022-09-26T00:57:00.962Z,41.0310
2022-09-26T00:57:12.037Z,41.0160
2022-09-26T00:57:23.173Z,41.0300
2022-09-26T00:57:34.222Z,41.0160
2022-09-26T00:57:45.295Z,41.0080
2022-09-26T00:57:56.398Z,41.0080
2022-09-26T00:58:07.469Z,41.0620
2022-09-26T00:58:18.540Z,41.0620
2022-09-26T00:58:29.611Z,41.0530
2022-09-26T00:58:40.671Z,41.0470
2022-09-26T00:58:51.729Z,41.0530
2022-09-26T00:59:02.797Z,41.0620
2022-09-26T00:59:14.094Z,41.0760
2022-09-26T00:59:25.390Z,41.0880
2022-09-26T00:59:36.445Z,41.1130
2022-09-26T00:59:47.531Z,41.1010
2022-09-26T00:59:58.580Z,41.1330
2022-09-26T01:00:09.657Z,41.1570
2022-09-26T01:00:20.728Z,41.1870
2022-09-26T01:00:31.786Z,41.1300
2022-09-26T01:00:42.906Z,41.1250
2022-09-26T01:00:54.210Z,41.0710
2022-09-26T01:01:05.432Z,41.0680
2022-09-26T01:01:16.739Z,41.0550
2022-09-26T01:01:28.127Z,41.0530
2022-09-26T01:01:39.362Z,41.0590
2022-09-26T01:01:50.610Z,41.0370
2022-09-26T01:02:01.889Z,41.0370
2022-09-26T01:02:13.298Z,41.0340
2022-09-26T01:02:24.762Z,41.0430
2022-09-26T01:02:36.456Z,41.0680
2022-09-26T01:02:47.776Z,41.0820
2022-09-26T01:02:58.848Z,41.1070
2022-09-26T01:03:09.908Z,41.0820
2022-09-26T01:03:20.986Z,41.0700
2022-09-26T01:03:32.045Z,41.0490
2022-09-26T01:03:43.105Z,41.0550
2022-09-26T01:03:54.157Z,41.0800
2022-09-26T01:04:05.222Z,41.0860
2022-09-26T01:04:16.381Z,41.0820
2022-09-26T01:04:27.447Z,41.0820
2022-09-26T01:04:38.523Z,41.0880
2022-09-26T01:04:49.776Z,41.1130
2022-09-26T01:05:00.835Z,41.1400
2022-09-26T01:05:11.876Z,41.1330
2022-09-26T01:05:22.938Z,41.1330
2022-09-26T01:05:33.978Z,41.1330
2022-09-26T01:05:45.053Z,41.1150
2022-09-26T01:05:56.117Z,41.1210
2022-09-26T01:06:07.162Z,41.1210
2022-09-26T01:06:18.291Z,41.1400
2022-09-26T01:06:29.348Z,41.1400
2022-09-26T01:06:40.463Z,41.1210
2022-09-26T01:06:51.599Z,41.1190
2022-09-26T01:07:02.653Z,41.1190
2022-09-26T01:07:13.692Z,41.1420
2022-09-26T01:07:24.736Z,41.1360
2022-09-26T01:07:35.783Z,41.1480
2022-09-26T01:07:46.841Z,41.1250
2022-09-26T01:07:57.906Z,41.1190
2022-09-26T01:08:08.986Z,41.1130
2022-09-26T01:08:20.128Z,41.1010
2022-09-26T01:08:31.186Z,41.1190
2022-09-26T01:08:42.246Z,41.1130
2022-09-26T01:08:53.381Z,41.1130
2022-09-26T01:09:04.436Z,41.1210
2022-09-26T01:09:15.714Z,41.1150
2022-09-26T01:09:26.990Z,41.1460
2022-09-26T01:09:38.049Z,41.1210
2022-09-26T01:09:49.112Z,41.1270
2022-09-26T01:10:00.166Z,41.1090
2022-09-26T01:10:11.199Z,41.1090
2022-09-26T01:10:22.332Z,41.1330
2022-09-26T01:10:33.379Z,41.1270
2022-09-26T01:10:44.456Z,41.1480
2022-09-26T01:10:55.589Z,41.1420
2022-09-26T01:11:06.648Z,41.1480
2022-09-26T01:11:17.722Z,41.1300
2022-09-26T01:11:28.929Z,41.1250
2022-09-26T01:11:40.004Z,41.1300
2022-09-26T01:11:51.058Z,41.1300
2022-09-26T01:12:02.142Z,41.1250
2022-09-26T01:12:13.192Z,41.1190
2022-09-26T01:12:24.315Z,41.1250
2022-09-26T01:12:35.362Z,41.1300
2022-09-26T01:12:46.451Z,41.1300
2022-09-26T01:12:57.582Z,41.1360
2022-09-26T01:13:08.636Z,41.1190
2022-09-26T01:13:19.705Z,41.1300
2022-09-26T01:13:30.835Z,41.1250
2022-09-26T01:13:41.895Z,41.1300
2022-09-26T01:13:52.968Z,41.1300
2022-09-26T01:14:04.035Z,41.1360
2022-09-26T01:14:15.159Z,41.1300
2022-09-26T01:14:26.290Z,41.1380
2022-09-26T01:14:37.387Z,41.1320
2022-09-26T01:14:48.454Z,41.0820
2022-09-26T01:14:59.591Z,41.0700
2022-09-26T01:15:10.646Z,41.0370
2022-09-26T01:15:21.716Z,41.0490
2022-09-26T01:15:32.777Z,41.0310
2022-09-26T01:15:43.901Z,41.0310
2022-09-26T01:15:54.943Z,41.0310
2022-09-26T01:16:06.022Z,41.0300
2022-09-26T01:16:17.345Z,41.0350
2022-09-26T01:16:28.587Z,41.0350
2022-09-26T01:16:39.706Z,41.0300
2022-09-26T01:16:50.824Z,41.0050
2022-09-26T01:17:01.874Z,41.0050
2022-09-26T01:17:12.930Z,41.0050
2022-09-26T01:17:23.999Z,41.0050
2022-09-26T01:17:35.054Z,41.0100
2022-09-26T01:17:46.213Z,41.0240
2022-09-26T01:17:57.240Z,41.0240
2022-09-26T01:18:08.307Z,41.0350
2022-09-26T01:18:19.432Z,41.0700
2022-09-26T01:18:30.615Z,41.0590
2022-09-26T01:18:41.667Z,41.0640
2022-09-26T01:18:52.739Z,41.0760
2022-09-26T01:19:03.802Z,41.0820
2022-09-26T01:19:14.970Z,41.0700
2022-09-26T01:19:26.061Z,41.0490
2022-09-26T01:19:37.122Z,41.0640
2022-09-26T01:19:48.308Z,41.0700
2022-09-26T01:19:59.352Z,41.0300
2022-09-26T01:20:10.393Z,40.9960
2022-09-26T01:20:21.533Z,40.9810
2022-09-26T01:20:32.565Z,41.0050
2022-09-26T01:20:43.606Z,41.0080
2022-09-26T01:20:54.680Z,41.0030
2022-09-26T01:21:05.750Z,41.0200
2022-09-26T01:21:16.789Z,41.0260
2022-09-26T01:21:27.849Z,41.0320
2022-09-26T01:21:38.927Z,41.0430
2022-09-26T01:21:50.065Z,41.0550
2022-09-26T01:22:01.120Z,41.0550
2022-09-26T01:22:12.182Z,41.0590
2022-09-26T01:22:23.304Z,41.0940
2022-09-26T01:22:34.382Z,41.0590
2022-09-26T01:22:45.424Z,41.0760
2022-09-26T01:22:56.493Z,41.0820
2022-09-26T01:23:07.538Z,41.0880
2022-09-26T01:23:18.604Z,41.0940
2022-09-26T01:23:29.653Z,41.0710
2022-09-26T01:23:40.724Z,41.0650
2022-09-26T01:23:51.892Z,41.0590
2022-09-26T01:24:02.939Z,41.0710
2022-09-26T01:24:14.050Z,41.0530
2022-09-26T01:24:25.191Z,41.0530
2022-09-26T01:24:36.242Z,41.0410
2022-09-26T01:24:47.302Z,41.0410
2022-09-26T01:24:58.384Z,41.0590
2022-09-26T01:25:09.449Z,41.0360
2022-09-26T01:25:20.523Z,41.0360
2022-09-26T01:25:31.575Z,41.0650
2022-09-26T01:25:42.642Z,41.0300
2022-09-26T01:25:53.818Z,41.0360
2022-09-26T01:26:04.851Z,41.0300
2022-09-26T01:26:15.934Z,41.0240
2022-09-26T01:26:27.089Z,41.0180
2022-09-26T01:26:38.149Z,40.9990
2022-09-26T01:26:49.232Z,41.0050
2022-09-26T01:27:00.306Z,41.0180
2022-09-26T01:27:11.361Z,41.0260
2022-09-26T01:27:22.421Z,41.0380
2022-09-26T01:27:33.463Z,41.0500
2022-09-26T01:27:44.595Z,41.0500
2022-09-26T01:27:55.730Z,41.0440
2022-09-26T01:28:06.807Z,41.0200
2022-09-26T01:28:17.884Z,40.9970
2022-09-26T01:28:28.944Z,40.9660
2022-09-26T01:28:39.984Z,40.9610
2022-09-26T01:28:51.059Z,40.9850
2022-09-26T01:29:02.197Z,41.0260
2022-09-26T01:29:13.512Z,41.0150
2022-09-26T01:29:24.869Z,41.0260
2022-09-26T01:29:35.962Z,40.9910
2022-09-26T01:29:47.093Z,40.9850
2022-09-26T01:29:58.301Z,40.9800
2022-09-26T01:30:09.471Z,41.0030
2022-09-26T01:30:20.555Z,40.9660
2022-09-26T01:30:31.782Z,40.9430
2022-09-26T01:30:42.936Z,40.9660
2022-09-26T01:30:54.102Z,40.9970
2022-09-26T01:31:05.207Z,40.9850
2022-09-26T01:31:16.456Z,40.9970
2022-09-26T01:31:27.507Z,41.0260
2022-09-26T01:31:38.571Z,41.0200
2022-09-26T01:31:49.701Z,41.0380
2022-09-26T01:32:00.852Z,41.0320
2022-09-26T01:32:11.911Z,41.0150
2022-09-26T01:32:22.994Z,41.0090
2022-09-26T01:32:34.111Z,41.0090
2022-09-26T01:32:45.253Z,41.0030
2022-09-26T01:32:56.316Z,40.9610
2022-09-26T01:33:07.402Z,40.9490
2022-09-26T01:33:18.482Z,40.9660
2022-09-26T01:33:29.545Z,40.9490
2022-09-26T01:33:40.591Z,40.9410
2022-09-26T01:33:51.740Z,40.9160
2022-09-26T01:34:02.869Z,40.9270
2022-09-26T01:34:13.936Z,40.9700
2022-09-26T01:34:25.001Z,40.9930
2022-09-26T01:34:36.053Z,40.9530
2022-09-26T01:34:47.211Z,40.9260
2022-09-26T01:34:58.300Z,40.9260
2022-09-26T01:35:09.353Z,40.9080
2022-09-26T01:35:20.570Z,40.9020
2022-09-26T01:35:31.614Z,40.9200
2022-09-26T01:35:42.691Z,40.9080
2022-09-26T01:35:53.825Z,40.9260
2022-09-26T01:36:05.011Z,40.9310
2022-09-26T01:36:16.054Z,40.9200
2022-09-26T01:36:27.133Z,40.9140
2022-09-26T01:36:38.242Z,40.9260
2022-09-26T01:36:49.368Z,40.9490
2022-09-26T01:37:00.410Z,40.9490
2022-09-26T01:37:11.457Z,40.9430
2022-09-26T01:37:22.588Z,40.9140
2022-09-26T01:37:33.628Z,40.9020
2022-09-26T01:37:44.689Z,40.8960
2022-09-26T01:37:55.774Z,40.8830
2022-09-26T01:38:06.849Z,40.8960
2022-09-26T01:38:17.916Z,40.9200
2022-09-26T01:38:28.954Z,40.9430
2022-09-26T01:38:40.015Z,40.9310
2022-09-26T01:38:51.292Z,40.9200
2022-09-26T01:39:02.359Z,40.9430
2022-09-26T01:39:13.478Z,40.9140
2022-09-26T01:39:24.614Z,40.8960
2022-09-26T01:39:35.686Z,40.9140
2022-09-26T01:39:46.725Z,40.9020
2022-09-26T01:39:57.861Z,40.9020
2022-09-26T01:40:08.992Z,40.9020
2022-09-26T01:40:20.099Z,40.9020
2022-09-26T01:40:31.268Z,40.9080
2022-09-26T01:40:42.393Z,40.9550
2022-09-26T01:40:53.545Z,40.9550
2022-09-26T01:41:04.615Z,40.9310
2022-09-26T01:41:15.691Z,40.8960
2022-09-26T01:41:26.831Z,40.8690
2022-09-26T01:41:37.892Z,40.8770
2022-09-26T01:41:48.961Z,40.8660
2022-09-26T01:42:00.022Z,40.8540
2022-09-26T01:42:11.078Z,40.8660
2022-09-26T01:42:22.139Z,40.8600
2022-09-26T01:42:33.281Z,40.8430
2022-09-26T01:42:44.344Z,40.8430
2022-09-26T01:42:55.468Z,40.8540
2022-09-26T01:43:06.515Z,40.8690
2022-09-26T01:43:17.553Z,40.8390
2022-09-26T01:43:28.687Z,40.8390
2022-09-26T01:43:39.742Z,40.8440
2022-09-26T01:43:50.826Z,40.8440
2022-09-26T01:44:01.955Z,40.8520
2022-09-26T01:44:13.018Z,40.8580
2022-09-26T01:44:24.091Z,40.8390
2022-09-26T01:44:35.147Z,40.8270
2022-09-26T01:44:46.320Z,40.8250
2022-09-26T01:44:57.447Z,40.8310
2022-09-26T01:45:08.504Z,40.8370
2022-09-26T01:45:19.631Z,40.8540
2022-09-26T01:45:30.753Z,40.8600
2022-09-26T01:45:41.866Z,40.8480
2022-09-26T01:45:53.014Z,40.8310
2022-09-26T01:46:04.171Z,40.8480
2022-09-26T01:46:15.329Z,40.8490
2022-09-26T01:46:26.504Z,40.8540
2022-09-26T01:46:37.584Z,40.8600
2022-09-26T01:46:48.736Z,40.9080
2022-09-26T01:47:00.004Z,40.9550
2022-09-26T01:47:11.083Z,40.9680
2022-09-26T01:47:22.211Z,40.9490
2022-09-26T01:47:33.355Z,40.9380
2022-09-26T01:47:44.434Z,40.9320
2022-09-26T01:47:55.511Z,40.9030
2022-09-26T01:48:06.581Z,40.9200
2022-09-26T01:48:17.627Z,40.8970
2022-09-26T01:48:28.669Z,40.9260
2022-09-26T01:48:39.729Z,40.9490
2022-09-26T01:48:50.849Z,40.9380
2022-09-26T01:49:01.918Z,40.9260
2022-09-26T01:49:13.091Z,40.8970
2022-09-26T01:49:24.243Z,40.8850
2022-09-26T01:49:35.285Z,40.9030
2022-09-26T01:49:46.344Z,40.9080
2022-09-26T01:49:57.423Z,40.9490
2022-09-26T01:50:08.474Z,40.9610
2022-09-26T01:50:19.600Z,40.9320
2022-09-26T01:50:30.663Z,40.9370
2022-09-26T01:50:41.760Z,40.9020
2022-09-26T01:50:53.005Z,40.8830
2022-09-26T01:51:04.054Z,40.8720
2022-09-26T01:51:15.119Z,40.8960
2022-09-26T01:51:26.292Z,40.9080
2022-09-26T01:51:37.352Z,40.9140
2022-09-26T01:51:48.402Z,40.8960
2022-09-26T01:51:59.451Z,40.8830
2022-09-26T01:52:10.512Z,40.8910
2022-09-26T01:52:21.654Z,40.8830
2022-09-26T01:52:32.725Z,40.8970
2022-09-26T01:52:43.761Z,40.9380
2022-09-26T01:52:54.930Z,40.9310
2022-09-26T01:53:05.983Z,40.8960
2022-09-26T01:53:17.023Z,40.8960
2022-09-26T01:53:28.354Z,40.8720
2022-09-26T01:53:39.434Z,40.8720
2022-09-26T01:53:50.485Z,40.8540
2022-09-26T01:54:01.586Z,40.8720
2022-09-26T01:54:12.638Z,40.8660
2022-09-26T01:54:23.759Z,40.8830
2022-09-26T01:54:34.829Z,40.8770
2022-09-26T01:54:45.884Z,40.8660
2022-09-26T01:54:57.011Z,40.8430
2022-09-26T01:55:08.093Z,40.8720
2022-09-26T01:55:19.143Z,40.9140
2022-09-26T01:55:30.283Z,40.9020
2022-09-26T01:55:41.357Z,40.9200
2022-09-26T01:55:52.433Z,40.9080
2022-09-26T01:56:03.553Z,40.8850
2022-09-26T01:56:14.654Z,40.8910
2022-09-26T01:56:25.822Z,40.8970
2022-09-26T01:56:36.910Z,40.9260
2022-09-26T01:56:47.946Z,40.8910
2022-09-26T01:56:59.078Z,40.8720
2022-09-26T01:57:10.145Z,40.8830
2022-09-26T01:57:21.204Z,40.8540
2022-09-26T01:57:32.356Z,40.8480
2022-09-26T01:57:43.416Z,40.8430
2022-09-26T01:57:54.475Z,40.8480
2022-09-26T01:58:05.515Z,40.8250
2022-09-26T01:58:16.613Z,40.8190
2022-09-26T01:58:27.666Z,40.8000
2022-09-26T01:58:38.797Z,40.7890
2022-09-26T01:58:49.921Z,40.7980
2022-09-26T01:59:01.046Z,40.7860
2022-09-26T01:59:12.140Z,40.7860
2022-09-26T01:59:23.182Z,40.7690
2022-09-26T01:59:34.241Z,40.7440
2022-09-26T01:59:45.339Z,40.7330
2022-09-26T01:59:56.401Z,40.7380
2022-09-26T02:00:07.499Z,40.7270
2022-09-26T02:00:18.631Z,40.7380
2022-09-26T02:00:29.689Z,40.7610
2022-09-26T02:00:40.761Z,40.7690
2022-09-26T02:00:51.874Z,40.7500
2022-09-26T02:01:03.053Z,40.7380
2022-09-26T02:01:14.190Z,40.7710
2022-09-26T02:01:25.354Z,40.8080
2022-09-26T02:01:36.591Z,40.8080
2022-09-26T02:01:47.764Z,40.7890
2022-09-26T02:01:58.926Z,40.8080
2022-09-26T02:02:10.051Z,40.8140
2022-09-26T02:02:21.252Z,40.8000
2022-09-26T02:02:32.651Z,40.8080
2022-09-26T02:02:43.895Z,40.7960
2022-09-26T02:02:54.962Z,40.8140
2022-09-26T02:03:06.000Z,40.7830
2022-09-26T02:03:17.119Z,40.8200
2022-09-26T02:03:28.150Z,40.8260
2022-09-26T02:03:39.227Z,40.8260
2022-09-26T02:03:50.359Z,40.8200
2022-09-26T02:04:01.408Z,40.8020
2022-09-26T02:04:12.469Z,40.8140
2022-09-26T02:04:23.601Z,40.8430
2022-09-26T02:04:34.733Z,40.8200
2022-09-26T02:04:45.800Z,40.7940
2022-09-26T02:04:56.842Z,40.7650
2022-09-26T02:05:07.933Z,40.7710
2022-09-26T02:05:18.992Z,40.7650
2022-09-26T02:05:30.062Z,40.7540
2022-09-26T02:05:41.147Z,40.7540
2022-09-26T02:05:52.249Z,40.7440
2022-09-26T02:06:03.311Z,40.7500
2022-09-26T02:06:14.372Z,40.7440
2022-09-26T02:06:25.508Z,40.7210
2022-09-26T02:06:36.542Z,40.7560
2022-09-26T02:06:47.610Z,40.7710
2022-09-26T02:06:58.910Z,40.7600
2022-09-26T02:07:09.966Z,40.7830
2022-09-26T02:07:21.006Z,40.7650
2022-09-26T02:07:32.055Z,40.7540
2022-09-26T02:07:43.105Z,40.7770
2022-09-26T02:07:54.171Z,40.7770
2022-09-26T02:08:05.211Z,40.7940
2022-09-26T02:08:16.273Z,40.8430
2022-09-26T02:08:27.389Z,40.8480
2022-09-26T02:08:38.484Z,40.8370
2022-09-26T02:08:49.493Z,40.8190
2022-09-26T02:09:00.686Z,40.7650
2022-09-26T02:09:11.766Z,40.7480
2022-09-26T02:09:22.786Z,40.7600
2022-09-26T02:09:33.849Z,40.7540
2022-09-26T02:09:44.908Z,40.7420
2022-09-26T02:09:56.045Z,40.7420
2022-09-26T02:10:07.107Z,40.7650
2022-09-26T02:10:18.175Z,40.7480
2022-09-26T02:10:29.335Z,40.7250
2022-09-26T02:10:40.411Z,40.7190
2022-09-26T02:10:51.476Z,40.7110
2022-09-26T02:11:02.603Z,40.7110
2022-09-26T02:11:13.686Z,40.7060
2022-09-26T02:11:24.772Z,40.6880
2022-09-26T02:11:35.866Z,40.6940
2022-09-26T02:11:46.928Z,40.7110
2022-09-26T02:11:58.054Z,40.7000
2022-09-26T02:12:09.124Z,40.7250
2022-09-26T02:12:22.213Z,40.7890
2022-09-26T02:12:33.341Z,40.7420
2022-09-26T02:12:44.411Z,40.7310
2022-09-26T02:12:55.467Z,40.7250
2022-09-26T02:13:06.511Z,40.7060
2022-09-26T02:13:17.581Z,40.7000
2022-09-26T02:13:28.651Z,40.6940
2022-09-26T02:13:39.718Z,40.7060
2022-09-26T02:13:50.782Z,40.7370
2022-09-26T02:14:01.924Z,40.7480
2022-09-26T02:14:12.981Z,40.7420
2022-09-26T02:14:24.040Z,40.7420